CW4490 Weather Reports


Display with metric or nautical units.
time (UTC)temp
F
wind
direction
speed
MPH
gust
MPH
rain 1hr
in
rain 24hr
in
rain mn
in
humidity
%
barometer
mb
20210924203402 84 73 4.0 0.0 0.00 0.00 0.00 32 1013.0
20210924202355 84 84 5.0 0.0 0.00 0.00 0.00 32 1013.1
20210924200357 84 114 5.0 0.0 0.00 0.00 0.00 31 1013.2
20210924195351 84 81 3.0 0.0 0.00 0.00 0.00 34 1013.3
20210924194341 84 31 3.0 0.0 0.00 0.00 0.00 33 1013.6
20210924193451 84 85 3.0 0.0 0.00 0.00 0.00 36 1013.6
20210924192509 84 260 2.0 0.0 0.00 0.00 0.00 38 1013.7
20210924191453 83 157 4.0 0.0 0.00 0.00 0.00 36 1013.7
20210924185433 83 154 3.0 0.0 0.00 0.00 0.00 37 1014.4
20210924182432 82 206 4.0 0.0 0.00 0.00 0.00 39 1014.8
20210924181430 82 192 4.0 0.0 0.00 0.00 0.00 41 1014.8
20210924180436 82 160 4.0 0.0 0.00 0.00 0.00 39 1015.0
20210924165421 79 197 3.0 0.0 0.00 0.00 0.00 50 1015.8
20210924164420 78 186 4.0 0.0 0.00 0.00 0.00 49 1015.8
20210924162433 77 112 5.0 0.0 0.00 0.00 0.00 49 1015.9
20210924160437 76 192 3.0 0.0 0.00 0.00 0.00 54 1015.7
20210924155437 75 207 3.0 0.0 0.00 0.00 0.00 54 1015.9
20210924154431 75 126 4.0 0.0 0.00 0.00 0.00 55 1015.9
20210924151440 74 221 3.0 0.0 0.00 0.00 0.00 62 1015.8
20210924150433 73 139 3.0 0.0 0.00 0.00 0.00 64 1015.8
20210924145418 72 121 3.0 0.0 0.00 0.00 0.00 64 1015.8
20210924144411 71 165 3.0 0.0 0.00 0.00 0.00 65 1015.8
20210924142402 68 160 2.0 0.0 0.00 0.00 0.00 69 1015.7
20210924140404 62 326 0.0 0.0 0.00 0.00 0.00 77 1015.6
20210924135354 59 326 1.0 0.0 0.00 0.00 0.00 77 1015.6
20210924132403 52 333 1.0 0.0 0.00 0.00 0.00 85 1015.3
20210924131357 49 336 1.0 0.0 0.00 0.00 0.00 86 1015.1
20210924130408 48 336 1.0 0.0 0.00 0.00 0.00 87 1015.0
20210924125403 47 336 0.0 0.0 0.00 0.00 0.00 87 1015.3
20210924124401 46 336 1.0 0.0 0.00 0.00 0.00 87 1015.2
20210924123359 46 336 0.0 0.0 0.00 0.00 0.00 87 1015.2
20210924122356 46 336 0.0 0.0 0.00 0.00 0.00 87 1015.0
20210924121350 46 336 0.0 0.0 0.00 0.00 0.00 86 1014.7
20210924110353 47 336 1.0 0.0 0.00 0.00 0.00 85 1014.7
20210924105350 47 336 1.0 0.0 0.00 0.00 0.00 84 1014.5
20210924103403 47 336 0.0 0.0 0.00 0.00 0.00 84 1014.5
20210924101354 47 336 0.0 0.0 0.00 0.00 0.00 84 1014.2
20210924100404 47 336 0.0 0.0 0.00 0.00 0.00 83 1014.2
20210924093357 48 336 0.0 0.0 0.00 0.00 0.00 82 1014.0
20210924083407 49 336 1.0 0.0 0.00 0.00 0.00 80 1014.2
20210924081358 49 336 0.0 0.0 0.00 0.00 0.00 79 1014.2
20210924080354 49 336 1.0 0.0 0.00 0.00 0.00 78 1014.2
20210924073401 49 336 0.0 0.0 0.00 0.00 0.00 77 1014.2
20210924071354 50 336 0.0 0.0 0.00 0.00 0.00 76 1014.3
20210924070405 50 336 0.0 0.0 0.00 0.00 0.00 75 1014.3
20210924065402 50 336 0.0 0.0 0.00 0.00 0.00 75 1014.2
20210924064357 50 336 0.0 0.0 0.00 0.00 0.00 75 1014.2
20210924063358 51 336 0.0 0.0 0.00 0.00 0.00 74 1014.2
20210924062355 51 336 0.0 0.0 0.00 0.00 0.00 73 1014.2
20210924060400 51 336 0.0 0.0 0.00 0.00 0.00 72 1014.3
20210924055355 52 336 0.0 0.0 0.00 0.00 0.00 71 1014.3
20210924045351 54 336 1.0 0.0 0.00 0.00 0.00 68 1014.2
20210924044402 54 336 1.0 0.0 0.00 0.00 0.00 67 1014.1
20210924042353 55 351 1.0 0.0 0.00 0.00 0.00 66 1013.9
20210924041349 56 351 1.0 0.0 0.00 0.00 0.00 64 1013.8
20210924040355 56 355 1.0 0.0 0.00 0.00 0.00 63 1013.8
20210924035345 56 346 0.0 0.0 0.00 0.00 0.00 63 1013.7
20210924034335 57 346 0.0 0.0 0.00 0.00 0.00 62 1013.5
20210924033350 58 346 0.0 0.0 0.00 0.00 0.00 61 1013.5
20210924032351 58 346 0.0 0.0 0.00 0.00 0.00 60 1013.3
20210924031344 58 346 1.0 0.0 0.00 0.00 0.00 60 1013.4
20210924030335 59 346 1.0 0.0 0.00 0.00 0.00 59 1013.4
20210924021331 62 346 1.0 0.0 0.00 0.00 0.00 51 1013.1
20210924020341 63 346 1.0 0.0 0.00 0.00 0.00 51 1013.1
20210924015337 63 348 1.0 0.0 0.00 0.00 0.00 52 1012.5
20210924012344 66 350 1.0 0.0 0.00 0.00 0.00 46 1012.4
20210924010334 71 111 0.0 0.0 0.00 0.00 0.00 39 1012.8
20210924005351 72 111 1.0 0.0 0.00 0.00 0.00 35 1012.2
20210924004345 73 111 1.0 0.0 0.00 0.00 0.00 35 1012.1
20210924001335 80 93 1.0 0.0 0.00 0.00 0.00 28 1012.2
20210924000346 81 135 2.0 0.0 0.00 0.00 0.00 26 1012.3
20210923235342 82 105 3.0 0.0 0.00 0.00 0.00 25 1012.2
20210923234337 83 163 3.0 0.0 0.00 0.00 0.00 24 1012.1
20210923233331 83 109 3.0 0.0 0.00 0.00 0.00 25 1012.1
20210923232333 84 90 3.0 0.0 0.00 0.00 0.00 24 1012.1
20210923230337 84 31 3.0 0.0 0.00 0.00 0.00 24 1012.1
20210923224345 85 65 3.0 0.0 0.00 0.00 0.00 23 1012.1
20210923222338 85 76 3.0 0.0 0.00 0.00 0.00 23 1012.3
20210923221332 85 110 3.0 0.0 0.00 0.00 0.00 23 1012.2
20210923214335 85 51 3.0 0.0 0.00 0.00 0.00 23 1012.6
20210923211442 84 65 4.0 0.0 0.00 0.00 0.00 23 1012.7
20210923205447 85 111 3.0 0.0 0.00 0.00 0.00 23 1013.0